Weather observations for the past three days for
Baltimore, Inner Harbor
Imperial (Metric)
Date Time (edt) Wind (mph) Vis. (mi.) Weather Sky Cond. Temperature (ºF) Relative Humidity Wind Chill (°F) Heat Index (°F) Pressure Precipitation (in)
Air Dwpt 6 hour altimeter (in) sea level (mb) 1 hr 3 hr 6 hr
Max. Min.
04 09:53 Calm 0.00 NULL NULL 62.1 35.1 37% 29.96 1014.5
04 08:53 Calm 0.00 NULL NULL 57.9 36 44% 29.97 1014.8
04 07:53 Calm 0.00 NULL NULL 54 36 54 50 51% 29.98 1015.1
04 06:53 Calm 0.00 NULL NULL 51.1 36 56% 29.98 1015.3
04 05:53 Calm 0.00 NULL NULL 51.1 35.1 54% 29.98 1015.3
04 04:53 Calm 0.00 NULL NULL 51.1 34 52% 29.99 1015.6
04 03:53 Calm 0.00 NULL NULL 51.1 34 52% 29.99 1015.6
04 02:53 Calm 0.00 NULL NULL 51.1 32 48% 30 1015.8
04 01:53 Calm 0.00 NULL NULL 51.1 30.9 62.1 50 46% 30 1015.8
04 00:53 Calm 0.00 NULL NULL 52 30.9 45% 30 1015.8
03 23:53 Calm 0.00 NULL NULL 52 30 43% 29.99 1015.6
03 22:53 Calm 0.00 NULL NULL 55 28.9 37% 29.98 1015.2
03 21:53 Calm 0.00 NULL NULL 55 28 36% 29.98 1015.1
03 20:53 Calm 0.00 NULL NULL 57.9 26.1 29% 29.97 1014.7
03 19:53 Calm 0.00 NULL NULL 62.1 23 64 57.9 22% 29.95 1014.2
03 18:53 Calm 0.00 NULL NULL 63 21.9 21% 29.94 1014.0
03 17:53 Calm 0.00 NULL NULL 64 21.9 20% 29.95 1014.0
03 16:53 Calm 0.00 NULL NULL 63 21 20% 29.95 1014.0
03 15:53 Calm 0.00 NULL NULL 62.1 23 22% 29.96 1014.5
03 14:53 Calm 0.00 NULL NULL 60.1 23 24% 29.98 1015.3
03 13:53 Calm 0.00 NULL NULL 57.9 21.9 59 46 25% 30 1015.8
03 12:53 Calm 0.00 NULL NULL 55.9 21 26% 30.01 1016.1
03 11:53 Calm 0.00 NULL NULL 55 19.9 25% 30.02 1016.5
03 10:53 Calm 0.00 NULL NULL 52 21 30% 30.02 1016.6
03 09:53 Calm 0.00 NULL NULL 50 21.9 33% 30.03 1016.9
03 08:53 Calm 0.00 NULL NULL 48 25 41% 30.03 1016.9
03 07:53 Calm 0.00 NULL NULL 46 27 48 43 47% 30.02 1016.4
03 06:53 Calm 0.00 NULL NULL 43 28.9 58% 29.99 1015.5
03 05:53 Calm 0.00 NULL NULL 43 30 60% 29.96 1014.6
03 04:53 Calm 0.00 NULL NULL 44.1 30.9 60% 29.96 1014.3
03 03:53 Calm 0.00 NULL NULL 45 30.9 58% 29.94 1013.7
03 02:53 Calm 0.00 NULL NULL 46 30.9 56% 29.93 1013.5
03 01:53 Calm 0.00 NULL NULL 46.9 32 57 46.9 56% 29.93 1013.4
03 00:53 Calm 0.00 NULL NULL 50 30 46% 29.93 1013.5
02 23:53 Calm 0.00 NULL NULL 51.1 30.9 46% 29.94 1013.7
02 22:53 Calm 0.00 NULL NULL 54 30.9 42% 29.94 1013.7
02 21:53 Calm 0.00 NULL NULL 55 28.9 37% 29.93 1013.6
02 20:53 Calm 0.00 NULL NULL 55.9 28.9 36% 29.92 1013.1
02 19:53 Calm 0.00 NULL NULL 57 28 62.1 57 33% 29.9 1012.4
02 18:53 Calm 0.00 NULL NULL 59 27 29% 29.89 1012.2
02 17:53 Calm 0.00 NULL NULL 61 26.1 26% 29.88 1011.9
02 16:53 Calm 0.00 NULL NULL 60.1 27 28% 29.88 1011.7
02 15:53 Calm 0.00 NULL NULL 61 26.1 26% 29.88 1011.7
02 14:53 Calm 0.00 NULL NULL 62.1 28 28% 29.91 1012.8
02 13:53 Calm 0.00 NULL NULL 60.1 30.9 60.1 50 33% 29.93 1013.6
02 12:53 Calm 0.00 NULL NULL 57.9 30 35% 29.95 1014.1
02 11:53 Calm 0.00 NULL NULL 57.9 30 35% 29.95 1014.3
02 10:53 Calm 0.00 NULL NULL 55 30.9 40% 29.96 1014.4
02 09:53 Calm 0.00 NULL NULL 53.1 32 45% 29.95 1014.1
02 07:53 Calm 0.00 NULL NULL 50 36 57 50 59% 29.95 1014.3
02 06:53 Calm 0.00 NULL NULL 50 35.1 57% 29.94 1013.9
02 05:53 Calm 0.00 NULL NULL 52 36 55% 29.92 1013.1
02 04:53 Calm 0.00 NULL NULL 54 39 57% 29.92 1013.0
02 03:53 Calm 0.00 NULL NULL 55 42.1 62% 29.9 1012.6
02 02:53 Calm 0.00 NULL NULL 55.9 41 57% 29.89 1012.3
02 01:53 Calm 0.00 NULL NULL 57 42.1 61 57 58% 29.91 1012.8
02 00:53 Calm 0.00 NULL NULL 57 44.1 62% 29.92 1013.0
01 23:53 Calm 0.00 NULL NULL 57.9 45 62% 29.91 1012.7
01 22:53 Calm 0.00 NULL NULL 59 44.1 58% 29.88 1011.9
01 21:53 Calm 0.00 NULL NULL 59 42.1 54% 29.89 1012.1
01 20:53 Calm 0.00 NULL NULL 60.1 37.9 44% 29.87 1011.5
01 19:53 Calm 0.00 NULL NULL 61 37 66.9 61 41% 29.85 1010.9
01 18:53 Calm 0.00 NULL NULL 64 36 35% 29.85 1010.8
01 17:53 Calm 0.00 NULL NULL 66 37 34% 29.85 1010.9
01 16:53 Calm 0.00 NULL NULL 64 37.9 38% 29.86 1010.9
01 15:53 Calm 0.00 NULL NULL 64 37.9 38% 29.88 1011.9
01 14:53 Calm 0.00 NULL NULL 63 36 37% 29.91 1012.7
01 13:53 Calm 0.00 NULL NULL 63 34 64 48 34% 29.94 1013.7
01 12:53 Calm 0.00 NULL NULL 62.1 35.1 37% 29.95 1014.1
01 11:53 Calm 0.00 NULL NULL 60.1 33.1 36% 29.98 1015.1
01 10:53 Calm 0.00 NULL NULL 57.9 34 41% 30 1015.8
Date Time (edt) Wind (mph) Vis. (mi.) Weather Sky Cond. Air Dwpt Max. Min. Relative Humidity Wind Chill (°F) Heat Index (°F) altimeter (in) sea level (mb) 1 hr 3 hr 6 hr
6 hour
Temperature (ºF) Pressure Precipitation (in)